Time;durP1;ratioP1;P1;durP2;ratioP2;P2;SDS_P1;SDS_P2;PMS_P1;PMS_P2;Temp;Humidity;BMP_temperature;BMP_pressure;BME280_temperature;BME280_humidity;BME280_pressure;Samples;Min_cycle;Max_cycle;Signal;HPM_P1;HPM_P2
2023/09/06 00:00:42;;;;;;;19.43;17.73;;;18.70;99.90;;;;;;6097860;23;20934;-88
2023/09/06 00:03:09;;;;;;;19.23;17.50;;;18.80;99.90;;;;;;6095960;23;20367;-89
2023/09/06 00:05:36;;;;;;;18.63;17.02;;;18.70;99.90;;;;;;6098192;23;20481;-89
2023/09/06 00:08:03;;;;;;;20.05;18.35;;;18.80;99.90;;;;;;6120895;23;20797;-88
2023/09/06 00:10:28;;;;;;;16.67;15.17;;;18.30;99.90;;;;;;6097266;23;20451;-89
2023/09/06 00:12:54;;;;;;;15.30;13.88;;;18.30;99.90;;;;;;6097426;23;20734;-89
2023/09/06 00:15:19;;;;;;;13.00;11.90;;;18.20;99.90;;;;;;6120741;23;20375;-89
2023/09/06 00:17:45;;;;;;;13.82;12.60;;;18.50;99.90;;;;;;6097795;23;20398;-89
2023/09/06 00:20:19;;;;;;;17.73;16.23;;;18.50;99.90;;;;;;6096200;23;20441;-89
2023/09/06 00:22:53;;;;;;;15.32;14.02;;;18.40;99.90;;;;;;6122922;23;20845;-90
2023/09/06 00:25:19;;;;;;;14.88;13.57;;;18.40;99.90;;;;;;6096825;23;20450;-87
2023/09/06 00:27:44;;;;;;;14.30;13.18;;;18.00;99.90;;;;;;6122385;23;20943;-90
2023/09/06 00:30:10;;;;;;;14.30;13.10;;;18.50;99.90;;;;;;6121858;23;20378;-89
2023/09/06 00:32:36;;;;;;;17.13;15.80;;;18.00;99.90;;;;;;6120308;23;20395;-89
2023/09/06 00:35:01;;;;;;;16.90;15.57;;;17.80;99.90;;;;;;6098664;23;20375;-89
2023/09/06 00:37:37;;;;;;;16.77;15.38;;;18.40;99.90;;;;;;6096023;23;20418;-90
2023/09/06 00:40:37;;;;;;;15.83;14.50;;;17.90;99.90;;;;;;6122328;23;20383;-90
2023/09/06 00:42:59;;;;;;;15.23;14.13;;;17.80;99.90;;;;;;6116730;23;20383;-90
2023/09/06 00:45:28;;;;;;;21.37;19.57;;;18.00;99.90;;;;;;6096898;23;20375;-88
2023/09/06 00:47:58;;;;;;;19.75;18.10;;;17.70;99.90;;;;;;6099255;23;20870;-89
2023/09/06 00:50:27;;;;;;;21.65;19.98;;;17.80;99.90;;;;;;6122539;23;20383;-89
2023/09/06 00:52:53;;;;;;;20.48;18.88;;;17.60;99.90;;;;;;6124349;23;20444;-90
2023/09/06 00:55:20;;;;;;;18.63;17.13;;;18.10;99.90;;;;;;6097624;23;20410;-89
2023/09/06 00:57:46;;;;;;;19.45;17.95;;;17.70;99.90;;;;;;6099627;23;20371;-90
2023/09/06 01:00:17;;;;;;;20.40;18.63;;;17.60;99.90;;;;;;6122944;23;20689;-90
2023/09/06 01:02:44;;;;;;;25.58;23.40;;;17.70;99.90;;;;;;6123640;23;20430;-89
2023/09/06 01:05:10;;;;;;;28.08;25.70;;;17.70;99.90;;;;;;6124297;23;20446;-90
2023/09/06 01:07:38;;;;;;;23.90;21.85;;;17.70;99.90;;;;;;6122613;23;20383;-91
2023/09/06 01:10:04;;;;;;;20.57;19.03;;;17.60;99.90;;;;;;6099698;23;20410;-89
2023/09/06 01:12:30;;;;;;;19.60;18.00;;;17.70;99.90;;;;;;6096518;23;20395;-90
2023/09/06 01:14:56;;;;;;;22.00;20.30;;;17.60;99.90;;;;;;6099621;23;20389;-90
2023/09/06 01:17:26;;;;;;;30.13;27.63;;;17.60;99.90;;;;;;6122133;23;20379;-89
2023/09/06 01:19:59;;;;;;;24.77;22.80;;;18.00;99.90;;;;;;6099424;23;20498;-88
2023/09/06 01:22:31;;;;;;;21.60;19.90;;;17.90;99.90;;;;;;6099693;23;20379;-89
2023/09/06 01:24:57;;;;;;;19.45;17.98;;;17.50;99.90;;;;;;6122272;23;20416;-90
2023/09/06 01:27:24;;;;;;;20.10;18.60;;;17.90;99.90;;;;;;6123881;23;20375;-88
2023/09/06 01:29:49;;;;;;;16.38;15.07;;;17.50;99.90;;;;;;6122104;23;20448;-90
2023/09/06 01:32:16;;;;;;;19.60;18.10;;;17.80;99.90;;;;;;6099683;23;20448;-89
2023/09/06 01:34:42;;;;;;;28.10;25.70;;;17.80;99.90;;;;;;6097881;23;20986;-89
2023/09/06 01:37:07;;;;;;;22.42;20.70;;;17.60;99.90;;;;;;6099472;23;20371;-90
2023/09/06 01:39:33;;;;;;;22.83;21.03;;;17.50;99.90;;;;;;6099089;23;20375;-90
2023/09/06 01:41:58;;;;;;;27.98;25.45;;;17.80;99.90;;;;;;6098527;23;20406;-89
2023/09/06 01:44:26;;;;;;;25.27;23.30;;;17.60;99.90;;;;;;6124029;23;20413;-92
2023/09/06 01:46:52;;;;;;;21.45;19.73;;;17.40;99.90;;;;;;6097580;23;20454;-89
2023/09/06 01:49:18;;;;;;;19.95;18.27;;;17.20;99.90;;;;;;6124114;23;20410;-90
2023/09/06 01:51:43;;;;;;;19.43;17.93;;;17.40;99.90;;;;;;6121744;23;20402;-89
2023/09/06 01:54:11;;;;;;;21.88;20.17;;;17.30;99.90;;;;;;6123533;23;20379;-91
2023/09/06 01:56:36;;;;;;;19.92;18.48;;;17.00;99.90;;;;;;6098433;23;20434;-89
2023/09/06 01:59:03;;;;;;;27.90;25.70;;;17.40;99.90;;;;;;6122306;23;20376;-89
2023/09/06 02:01:29;;;;;;;24.23;22.40;;;17.20;99.90;;;;;;6099392;23;20386;-89
2023/09/06 02:03:55;;;;;;;28.65;26.48;;;17.30;99.90;;;;;;6122050;23;20467;-89
2023/09/06 02:06:21;;;;;;;20.92;19.35;;;17.70;99.90;;;;;;6099379;23;20860;-89
2023/09/06 02:08:46;;;;;;;26.30;24.27;;;17.60;99.90;;;;;;6097189;23;20382;-88
2023/09/06 02:11:12;;;;;;;35.38;32.40;;;17.60;99.90;;;;;;6123827;23;20403;-89
2023/09/06 02:13:38;;;;;;;24.37;22.40;;;17.40;99.90;;;;;;6097183;23;20399;-89
2023/09/06 02:16:04;;;;;;;28.58;26.33;;;17.00;99.90;;;;;;6099011;23;20378;-89
2023/09/06 02:18:30;;;;;;;26.85;24.65;;;17.20;99.90;;;;;;6123300;23;20379;-90
2023/09/06 02:20:56;;;;;;;22.17;20.45;;;17.20;99.90;;;;;;6121844;23;20700;-89
2023/09/06 02:23:22;;;;;;;24.73;22.73;;;17.20;99.90;;;;;;6123437;23;20379;-88
2023/09/06 02:25:48;;;;;;;26.65;24.60;;;17.10;99.90;;;;;;6121273;23;20414;-90
2023/09/06 02:28:17;;;;;;;20.63;19.03;;;17.40;99.90;;;;;;6123969;23;20814;-90
2023/09/06 02:30:43;;;;;;;25.73;23.77;;;17.40;99.90;;;;;;6097333;23;20382;-89
2023/09/06 02:33:13;;;;;;;20.05;18.45;;;17.50;99.90;;;;;;6123466;23;20445;-90
2023/09/06 02:35:43;;;;;;;28.98;26.52;;;17.00;99.90;;;;;;6098402;23;20943;-88
2023/09/06 02:38:10;;;;;;;19.52;18.13;;;17.10;99.90;;;;;;6122331;23;20812;-90
2023/09/06 02:40:37;;;;;;;17.95;16.65;;;17.00;99.90;;;;;;6123235;23;20387;-89
2023/09/06 02:43:04;;;;;;;16.55;15.32;;;17.00;99.90;;;;;;6121332;23;20390;-89
2023/09/06 02:45:36;;;;;;;22.42;20.60;;;16.90;99.90;;;;;;6098776;23;20454;-88
2023/09/06 02:48:06;;;;;;;24.67;22.85;;;16.90;99.90;;;;;;6097238;23;20760;-88
2023/09/06 02:50:35;;;;;;;22.87;21.07;;;16.80;99.90;;;;;;6123089;23;20367;-89
2023/09/06 02:53:03;;;;;;;25.35;23.33;;;16.80;99.90;;;;;;6098273;23;20736;-89
2023/09/06 02:55:35;;;;;;;22.25;20.55;;;16.80;99.90;;;;;;6121583;23;20367;-91
2023/09/06 02:58:01;;;;;;;26.40;24.35;;;16.80;99.90;;;;;;6099022;23;20449;-89
2023/09/06 03:00:29;;;;;;;31.10;28.67;;;16.80;99.90;;;;;;6120956;23;20367;-90
2023/09/06 03:03:05;;;;;;;30.38;27.88;;;16.80;99.90;;;;;;6123317;23;20470;-89
2023/09/06 03:05:42;;;;;;;27.02;24.85;;;16.90;99.90;;;;;;6097234;23;20390;-90
2023/09/06 03:08:12;;;;;;;25.40;23.20;;;16.80;99.90;;;;;;6098096;23;20380;-90
2023/09/06 03:10:40;;;;;;;33.78;30.85;;;16.80;99.90;;;;;;6098345;23;20674;-90
2023/09/06 03:13:05;;;;;;;26.63;24.53;;;17.10;99.90;;;;;;6096710;23;20398;-90
2023/09/06 03:15:31;;;;;;;38.55;35.15;;;16.40;99.90;;;;;;6123008;23;20386;-90
2023/09/06 03:18:02;;;;;;;21.58;19.88;;;16.60;99.90;;;;;;6120683;23;20375;-89
2023/09/06 03:20:33;;;;;;;26.17;24.08;;;16.70;99.90;;;;;;6098496;23;20403;-89
2023/09/06 03:23:16;;;;;;;30.55;27.95;;;16.70;99.90;;;;;;6121864;23;20375;-90
2023/09/06 03:25:47;;;;;;;22.52;20.80;;;16.60;99.90;;;;;;6097115;23;20386;-90
2023/09/06 03:28:13;;;;;;;28.38;26.00;;;16.60;99.90;;;;;;6123104;23;20697;-89
2023/09/06 03:30:39;;;;;;;15.90;14.68;;;16.60;99.90;;;;;;6120851;23;20682;-89
2023/09/06 03:33:08;;;;;;;16.58;15.27;;;16.90;99.90;;;;;;6098256;23;20502;-90
2023/09/06 03:35:34;;;;;;;21.30;19.70;;;16.50;99.90;;;;;;6121110;23;20371;-89
2023/09/06 03:38:02;;;;;;;23.75;21.88;;;16.60;99.90;;;;;;6098560;23;20430;-89
2023/09/06 03:40:37;;;;;;;28.88;26.50;;;16.90;99.90;;;;;;6122124;23;20375;-88
2023/09/06 03:43:04;;;;;;;34.25;31.35;;;16.90;99.90;;;;;;6121613;23;20405;-90
2023/09/06 03:45:34;;;;;;;25.63;23.45;;;16.50;99.90;;;;;;6123352;23;20855;-89
2023/09/06 03:48:00;;;;;;;11.55;10.65;;;16.50;99.90;;;;;;6120692;23;20379;-90
2023/09/06 03:50:27;;;;;;;16.60;15.40;;;16.40;99.90;;;;;;6123017;23;20682;-89
2023/09/06 03:52:53;;;;;;;15.27;14.07;;;16.80;99.90;;;;;;6096318;23;20406;-89
2023/09/06 03:55:20;;;;;;;11.93;11.02;;;16.50;99.90;;;;;;6122392;23;20780;-90
2023/09/06 03:57:48;;;;;;;11.25;10.45;;;16.50;99.90;;;;;;6121791;23;20394;-89
2023/09/06 04:00:31;;;;;;;74.30;20.35;;;16.50;99.90;;;;;;6121687;23;20887;-89
2023/09/06 04:02:57;;;;;;;13.55;12.50;;;16.20;99.90;;;;;;6122775;23;20372;-89
2023/09/06 04:05:25;;;;;;;12.38;11.45;;;16.20;99.90;;;;;;6120376;23;20454;-89
2023/09/06 04:07:56;;;;;;;10.20;9.43;;;16.60;99.90;;;;;;6098010;23;20367;-89
2023/09/06 04:10:23;;;;;;;10.50;9.70;;;16.10;99.90;;;;;;6096365;23;20375;-89
2023/09/06 04:12:50;;;;;;;8.45;7.85;;;16.20;99.90;;;;;;6121268;23;20430;-90
2023/09/06 04:15:21;;;;;;;7.40;6.90;;;16.00;99.90;;;;;;6121816;23;20375;-89
2023/09/06 04:17:50;;;;;;;7.90;7.30;;;16.20;99.90;;;;;;6120805;23;20851;-89
2023/09/06 04:20:19;;;;;;;7.40;6.90;;;16.20;99.90;;;;;;6097858;23;20371;-90
2023/09/06 04:22:48;;;;;;;9.98;9.20;;;15.90;99.90;;;;;;6120610;23;20704;-89
2023/09/06 04:25:17;;;;;;;10.68;9.88;;;15.90;99.90;;;;;;6122267;23;20723;-90
2023/09/06 04:27:44;;;;;;;10.65;9.85;;;15.80;99.90;;;;;;6096288;23;20402;-88
2023/09/06 04:30:11;;;;;;;13.32;12.23;;;15.80;99.90;;;;;;6122605;23;20371;-89
2023/09/06 04:32:37;;;;;;;12.52;11.57;;;15.70;99.90;;;;;;6121883;23;20729;-90
2023/09/06 04:35:03;;;;;;;12.95;11.85;;;15.70;99.90;;;;;;6121048;23;20375;-88
2023/09/06 04:37:29;;;;;;;12.80;11.80;;;15.70;99.90;;;;;;6122832;23;20394;-90
2023/09/06 04:39:55;;;;;;;12.88;11.90;;;16.00;99.90;;;;;;6096553;23;20371;-90
2023/09/06 04:42:20;;;;;;;12.33;11.23;;;15.70;99.90;;;;;;6122314;23;20947;-90
2023/09/06 04:44:46;;;;;;;14.07;12.88;;;16.00;99.90;;;;;;6096501;23;20427;-89
2023/09/06 04:47:14;;;;;;;12.33;11.33;;;15.70;99.90;;;;;;6095844;23;20367;-88
2023/09/06 04:49:45;;;;;;;12.98;11.88;;;16.10;99.90;;;;;;6096672;23;20696;-89
2023/09/06 04:52:11;;;;;;;11.27;10.37;;;15.90;99.90;;;;;;6096718;23;20764;-91
2023/09/06 04:54:37;;;;;;;12.60;11.53;;;15.60;99.90;;;;;;6122453;23;20400;-89
2023/09/06 04:57:02;;;;;;;13.18;12.07;;;15.60;99.90;;;;;;6119908;23;20867;-92
2023/09/06 04:59:28;;;;;;;10.85;9.90;;;15.60;99.90;;;;;;6097959;23;20403;-90
2023/09/06 05:01:54;;;;;;;16.30;14.93;;;16.00;99.90;;;;;;6095562;23;20379;-90
2023/09/06 05:04:20;;;;;;;11.60;10.60;;;15.70;99.90;;;;;;6097613;23;20490;-90
2023/09/06 05:06:45;;;;;;;15.37;13.97;;;15.90;99.90;;;;;;6120921;23;20383;-90
2023/09/06 05:09:15;;;;;;;16.25;14.85;;;15.90;99.90;;;;;;6121783;23;20595;-90
2023/09/06 05:11:40;;;;;;;15.40;14.00;;;16.00;99.90;;;;;;6097604;23;20379;-88
2023/09/06 05:14:06;;;;;;;14.95;13.75;;;15.70;99.90;;;;;;6095748;23;20414;-90
2023/09/06 05:16:31;;;;;;;16.27;14.83;;;15.70;99.90;;;;;;6122744;23;20414;-89
2023/09/06 05:18:57;;;;;;;16.50;14.95;;;16.00;99.90;;;;;;6096048;23;20371;-88
2023/09/06 05:21:23;;;;;;;16.17;14.67;;;16.40;99.90;;;;;;6097732;23;20421;-89
2023/09/06 05:23:48;;;;;;;16.13;14.73;;;16.00;99.90;;;;;;6120865;23;20379;-90
2023/09/06 05:26:14;;;;;;;14.63;13.40;;;16.10;99.90;;;;;;6097644;23;20367;-90
2023/09/06 05:28:42;;;;;;;14.40;13.05;;;16.20;99.90;;;;;;6121721;23;20378;-89
2023/09/06 05:31:09;;;;;;;12.25;11.15;;;16.30;99.90;;;;;;6097386;23;20386;-89
2023/09/06 05:33:34;;;;;;;13.77;12.57;;;16.40;99.90;;;;;;6123352;23;20398;-92
2023/09/06 05:36:00;;;;;;;12.75;11.55;;;16.50;99.90;;;;;;6098580;23;20974;-91
2023/09/06 05:38:26;;;;;;;13.13;11.93;;;16.60;99.90;;;;;;6125033;23;20474;-90
2023/09/06 05:40:53;;;;;;;12.87;11.77;;;16.80;99.90;;;;;;6097816;23;20386;-91
2023/09/06 05:43:18;;;;;;;13.00;11.80;;;17.00;99.90;;;;;;6124344;23;20439;-91
2023/09/06 05:45:44;;;;;;;12.88;11.77;;;16.80;99.90;;;;;;6122854;23;20454;-89
2023/09/06 05:48:10;;;;;;;13.40;12.13;;;16.90;99.90;;;;;;6123841;23;20461;-90
2023/09/06 05:50:35;;;;;;;10.85;9.95;;;17.00;99.90;;;;;;6100252;23;20461;-90
2023/09/06 05:53:01;;;;;;;12.63;11.50;;;17.20;99.90;;;;;;6122865;23;20453;-91
2023/09/06 05:55:28;;;;;;;12.85;11.85;;;17.80;99.90;;;;;;6100848;23;20978;-91
2023/09/06 05:57:53;;;;;;;12.30;11.20;;;17.40;99.90;;;;;;6122664;23;20418;-91
2023/09/06 06:00:21;;;;;;;12.80;11.70;;;17.80;99.90;;;;;;6100045;23;20367;-90
2023/09/06 06:02:50;;;;;;;12.13;11.02;;;17.60;99.90;;;;;;6123823;23;20824;-91
2023/09/06 06:05:18;;;;;;;11.48;10.32;;;17.90;99.90;;;;;;6123209;23;20378;-90
2023/09/06 06:07:45;;;;;;;11.00;9.98;;;18.20;99.90;;;;;;6098997;23;20673;-90
2023/09/06 06:10:11;;;;;;;9.93;9.00;;;18.00;99.90;;;;;;6097515;23;20371;-90
2023/09/06 06:12:38;;;;;;;9.67;8.87;;;18.20;99.90;;;;;;6123188;23;20422;-91
2023/09/06 06:15:08;;;;;;;8.93;8.23;;;18.30;99.90;;;;;;6097875;23;20720;-91
2023/09/06 06:17:35;;;;;;;11.33;10.03;;;18.40;99.90;;;;;;6099953;23;20403;-91
2023/09/06 06:20:00;;;;;;;8.90;8.10;;;19.00;99.90;;;;;;6098478;23;20375;-92
2023/09/06 06:22:26;;;;;;;10.48;9.57;;;18.90;99.90;;;;;;6124343;23;20453;-88
2023/09/06 06:24:52;;;;;;;10.73;9.73;;;19.10;99.90;;;;;;6098246;23;20374;-89
2023/09/06 06:27:18;;;;;;;9.53;8.73;;;19.30;99.90;;;;;;6098322;23;20379;-91
2023/09/06 06:29:44;;;;;;;10.18;9.18;;;19.00;99.90;;;;;;6123389;23;20430;-90
2023/09/06 06:32:09;;;;;;;10.38;9.57;;;19.20;99.90;;;;;;6097350;23;20367;-89
2023/09/06 06:34:39;;;;;;;8.53;7.80;;;19.60;99.90;;;;;;6099528;23;20834;-90
2023/09/06 06:37:05;;;;;;;8.45;7.75;;;19.80;99.90;;;;;;6097415;23;20390;-90
2023/09/06 06:39:31;;;;;;;8.80;8.00;;;19.60;99.90;;;;;;6099637;23;20366;-91
2023/09/06 06:41:57;;;;;;;10.50;9.50;;;19.60;99.90;;;;;;6122339;23;20867;-91
2023/09/06 06:44:22;;;;;;;10.32;9.52;;;20.30;99.90;;;;;;6123227;23;20394;-90
2023/09/06 06:46:48;;;;;;;8.37;7.43;;;19.90;99.90;;;;;;6122854;23;20409;-90
2023/09/06 06:49:15;;;;;;;7.68;6.88;;;20.00;99.90;;;;;;6098600;23;20390;-91
2023/09/06 06:51:40;;;;;;;7.60;6.90;;;20.10;99.90;;;;;;6100128;23;20374;-93
2023/09/06 06:54:08;;;;;;;7.20;6.50;;;20.60;99.90;;;;;;6097734;23;20398;-92
2023/09/06 06:56:37;;;;;;;7.07;6.32;;;20.30;99.90;;;;;;6099923;23;20394;-92
2023/09/06 06:59:03;;;;;;;6.57;5.88;;;20.80;99.90;;;;;;6093649;23;20375;-90
2023/09/06 07:01:31;;;;;;;6.80;6.20;;;20.60;99.90;;;;;;6098851;23;20733;-90
2023/09/06 07:04:00;;;;;;;6.63;5.97;;;20.70;99.90;;;;;;6097520;23;20451;-91
2023/09/06 07:06:26;;;;;;;5.72;5.22;;;20.80;99.90;;;;;;6096523;23;20383;-87
2023/09/06 07:08:53;;;;;;;5.80;5.20;;;20.90;99.90;;;;;;6098350;23;20375;-89
2023/09/06 07:11:20;;;;;;;5.85;5.28;;;21.00;99.90;;;;;;6095097;23;20410;-90
2023/09/06 07:13:49;;;;;;;5.85;5.35;;;21.10;99.90;;;;;;6097723;23;20403;-89
2023/09/06 07:16:17;;;;;;;5.70;5.20;;;21.20;99.90;;;;;;6095556;23;20414;-92
2023/09/06 07:18:43;;;;;;;5.20;4.70;;;21.70;99.90;;;;;;6099298;23;20755;-92
2023/09/06 07:21:09;;;;;;;4.95;4.55;;;21.40;99.90;;;;;;6099042;23;20429;-91
2023/09/06 07:23:35;;;;;;;4.55;4.05;;;21.50;99.90;;;;;;6099124;23;20945;-93
2023/09/06 07:26:01;;;;;;;6.03;4.22;;;21.60;99.90;;;;;;6098891;23;20371;-95
2023/09/06 07:28:39;;;;;;;5.83;3.90;;;21.70;99.90;;;;;;6098257;23;20383;-93
2023/09/06 07:31:07;;;;;;;4.80;3.97;;;21.80;99.90;;;;;;6097497;23;20756;-92
2023/09/06 07:33:32;;;;;;;4.22;3.83;;;22.40;99.90;;;;;;6097450;23;20431;-93
2023/09/06 07:35:58;;;;;;;4.13;3.67;;;22.00;99.90;;;;;;6124022;23;20367;-92
2023/09/06 07:38:24;;;;;;;3.97;3.45;;;22.10;99.90;;;;;;6122095;23;20461;-90
2023/09/06 07:41:04;;;;;;;6.30;3.90;;;22.20;99.90;;;;;;6098466;23;20375;-92
2023/09/06 07:43:31;;;;;;;3.70;3.20;;;22.60;99.90;;;;;;6123959;23;20472;-91
2023/09/06 07:46:00;;;;;;;5.45;3.20;;;22.30;99.90;;;;;;6097933;23;20367;-91
2023/09/06 07:48:28;;;;;;;5.83;3.20;;;22.60;99.90;;;;;;6099011;23;20454;-94
2023/09/06 07:50:54;;;;;;;4.00;3.22;;;22.50;99.90;;;;;;6097287;23;20375;-89
2023/09/06 07:53:20;;;;;;;4.80;3.00;;;22.80;99.90;;;;;;6099273;23;20482;-93
2023/09/06 07:55:46;;;;;;;4.55;3.10;;;22.70;99.90;;;;;;6097584;23;20371;-91
2023/09/06 07:58:13;;;;;;;5.10;3.20;;;22.80;99.90;;;;;;6098155;23;20394;-92
2023/09/06 08:00:40;;;;;;;5.00;2.83;;;22.90;99.90;;;;;;6124128;23;20381;-91
2023/09/06 08:03:05;;;;;;;6.32;3.25;;;22.90;99.90;;;;;;6121404;23;20366;-91
2023/09/06 08:05:32;;;;;;;4.97;3.37;;;23.30;99.90;;;;;;6098920;23;20367;-89
2023/09/06 08:07:58;;;;;;;4.30;3.08;;;23.10;99.90;;;;;;6120780;23;20378;-92
2023/09/06 08:10:25;;;;;;;4.70;2.90;;;23.20;99.90;;;;;;6099156;23;20387;-93
2023/09/06 08:12:51;;;;;;;5.75;3.63;;;23.70;99.90;;;;;;6121391;23;20913;-91
2023/09/06 08:15:17;;;;;;;4.43;2.85;;;23.20;99.90;;;;;;6123444;23;20888;-92
2023/09/06 08:17:47;;;;;;;4.45;2.85;;;23.40;99.90;;;;;;6122813;23;20379;-92
2023/09/06 08:20:16;;;;;;;3.72;2.70;;;23.80;99.90;;;;;;6116552;23;20712;-90
2023/09/06 08:22:42;;;;;;;3.35;2.50;;;23.50;99.90;;;;;;6123133;23;20374;-91
2023/09/06 08:25:08;;;;;;;4.97;2.80;;;23.50;99.90;;;;;;6095693;23;20377;-92
2023/09/06 08:27:34;;;;;;;3.63;2.60;;;23.70;99.90;;;;;;6096463;23;20399;-91
2023/09/06 08:30:00;;;;;;;3.60;2.53;;;23.70;99.90;;;;;;6121141;23;20871;-91
2023/09/06 08:32:25;;;;;;;3.17;2.43;;;23.80;99.90;;;;;;6099054;23;20395;-93
2023/09/06 08:34:51;;;;;;;4.40;2.80;;;23.90;99.90;;;;;;6122426;23;20855;-91
2023/09/06 08:37:17;;;;;;;3.80;2.30;;;24.00;99.90;;;;;;6097981;23;20445;-92
2023/09/06 08:39:43;;;;;;;2.63;2.30;;;24.00;99.90;;;;;;6123253;23;20425;-92
2023/09/06 08:42:10;;;;;;;4.65;2.50;;;24.10;99.90;;;;;;6097193;23;20512;-93
2023/09/06 08:44:37;;;;;;;3.47;2.20;;;24.10;99.90;;;;;;6123041;23;20389;-93
2023/09/06 08:47:06;;;;;;;3.22;2.22;;;24.60;99.90;;;;;;6096789;23;20733;-90
2023/09/06 08:49:32;;;;;;;3.28;2.25;;;24.30;99.90;;;;;;6099034;23;20375;-92
2023/09/06 08:52:00;;;;;;;3.80;2.00;;;24.40;99.90;;;;;;6097203;23;20375;-93
2023/09/06 08:54:27;;;;;;;3.50;2.10;;;24.50;99.90;;;;;;6122658;23;20834;-91
2023/09/06 08:56:53;;;;;;;3.67;2.20;;;24.60;99.90;;;;;;6122217;23;20378;-90
2023/09/06 08:59:19;;;;;;;4.47;2.20;;;24.80;99.90;;;;;;6120069;23;20386;-90
2023/09/06 09:01:45;;;;;;;3.28;2.00;;;24.70;97.70;;;;;;6098007;23;20410;-90
2023/09/06 09:04:12;;;;;;;3.67;1.80;;;24.80;97.10;;;;;;6120133;23;20704;-90
2023/09/06 09:06:46;;;;;;;4.40;2.30;;;24.90;99.90;;;;;;6122208;23;20367;-90
2023/09/06 09:09:19;;;;;;;4.18;2.20;;;25.00;98.50;;;;;;6097490;23;20425;-89
2023/09/06 09:11:52;;;;;;;2.95;2.20;;;25.10;99.90;;;;;;6123155;23;20708;-89
2023/09/06 09:14:23;;;;;;;5.25;2.40;;;25.10;97.80;;;;;;6099304;23;20412;-90
2023/09/06 09:16:54;;;;;;;3.88;1.95;;;25.40;99.90;;;;;;6122137;23;20379;-91
2023/09/06 09:19:24;;;;;;;3.70;1.90;;;25.30;96.40;;;;;;6099780;23;20383;-89
2023/09/06 09:21:50;;;;;;;2.77;1.83;;;25.40;96.10;;;;;;6097993;23;20383;-90
2023/09/06 09:24:27;;;;;;;3.20;2.13;;;25.70;97.20;;;;;;6099831;23;20390;-91
2023/09/06 09:26:53;;;;;;;4.13;1.83;;;25.50;99.20;;;;;;6123514;23;20387;-90
2023/09/06 09:29:19;;;;;;;3.25;1.95;;;26.00;99.30;;;;;;6098362;23;20370;-90
2023/09/06 09:31:46;;;;;;;3.28;1.70;;;25.70;96.50;;;;;;6124133;23;20371;-90
2023/09/06 09:34:12;;;;;;;2.70;1.83;;;25.90;94.20;;;;;;6097238;23;20477;-91
2023/09/06 09:36:38;;;;;;;3.25;1.83;;;25.90;96.70;;;;;;6123970;23;20375;-91
2023/09/06 09:39:08;;;;;;;2.58;1.75;;;26.00;88.50;;;;;;6122155;23;20768;-91
2023/09/06 09:41:35;;;;;;;2.70;1.60;;;26.10;91.70;;;;;;6123993;23;20474;-89
2023/09/06 09:44:19;;;;;;;3.00;1.70;;;26.40;96.70;;;;;;6098575;23;20756;-91
2023/09/06 09:46:46;;;;;;;3.17;1.63;;;26.30;84.20;;;;;;6097609;23;20390;-92
2023/09/06 09:49:13;;;;;;;3.50;1.63;;;26.70;90.80;;;;;;6123917;23;20371;-92
2023/09/06 09:51:40;;;;;;;3.40;1.70;;;26.50;90.60;;;;;;6097402;23;20375;-90
2023/09/06 09:54:08;;;;;;;3.35;1.52;;;26.70;94.70;;;;;;6099419;23;20450;-91
2023/09/06 09:56:34;;;;;;;3.87;1.50;;;26.90;90.30;;;;;;6097345;23;20701;-89
2023/09/06 09:59:04;;;;;;;2.13;1.60;;;27.20;87.30;;;;;;6099070;23;20699;-90
2023/09/06 10:01:31;;;;;;;4.20;1.50;;;27.40;75.40;;;;;;6094513;23;20419;-91
2023/09/06 10:03:58;;;;;;;2.75;1.40;;;27.70;74.20;;;;;;6122336;23;20387;-90
2023/09/06 10:06:27;;;;;;;3.20;1.40;;;28.10;73.90;;;;;;6099646;23;20406;-91
2023/09/06 10:08:58;;;;;;;3.17;1.50;;;28.50;72.80;;;;;;6097419;23;20374;-92
2023/09/06 10:11:25;;;;;;;2.63;1.40;;;29.00;64.30;;;;;;6095157;23;20371;-91
2023/09/06 10:13:52;;;;;;;3.53;1.35;;;29.30;61.10;;;;;;6097605;23;20399;-88
2023/09/06 10:16:19;;;;;;;4.18;1.42;;;29.60;60.50;;;;;;6123761;23;20371;-90
2023/09/06 10:18:44;;;;;;;2.50;1.60;;;30.00;64.50;;;;;;6123319;23;20379;-89
2023/09/06 10:21:13;;;;;;;2.80;1.20;;;30.40;56.90;;;;;;6122310;23;20379;-93
2023/09/06 10:23:43;;;;;;;4.03;1.20;;;30.80;57.90;;;;;;6099871;23;20375;-94
2023/09/06 10:26:09;;;;;;;3.90;1.27;;;31.10;54.20;;;;;;6097825;23;20756;-93
2023/09/06 10:28:35;;;;;;;2.20;1.13;;;31.40;54.30;;;;;;6124899;23;20807;-91
2023/09/06 10:31:08;;;;;;;2.22;0.90;;;31.70;50.50;;;;;;6122414;23;20878;-91
2023/09/06 10:33:37;;;;;;;1.80;0.93;;;31.90;49.10;;;;;;6123974;23;20395;-90
2023/09/06 10:36:08;;;;;;;4.97;1.40;;;32.00;50.60;;;;;;6123422;23;20716;-92
2023/09/06 10:38:58;;;;;;;2.90;1.00;;;32.00;48.40;;;;;;6098055;23;20374;-92
2023/09/06 10:41:27;;;;;;;1.50;1.00;;;32.30;50.20;;;;;;6098408;23;20446;-91
2023/09/06 10:43:58;;;;;;;2.63;1.00;;;32.60;48.40;;;;;;6121454;23;20669;-90
2023/09/06 10:46:28;;;;;;;2.15;1.00;;;32.70;47.10;;;;;;6098951;23;20391;-90
2023/09/06 10:49:25;;;;;;;2.47;1.00;;;32.80;47.80;;;;;;6122223;23;20947;-91
2023/09/06 10:51:59;;;;;;;3.00;1.00;;;33.00;45.80;;;;;;6121002;23;20379;-91
2023/09/06 10:54:39;;;;;;;1.63;0.80;;;33.10;45.10;;;;;;6123540;23;20419;-91
2023/09/06 10:57:10;;;;;;;4.28;1.05;;;33.20;45.30;;;;;;6096605;23;20390;-91
2023/09/06 10:59:42;;;;;;;2.20;0.80;;;33.30;45.40;;;;;;6121852;23;20375;-92
2023/09/06 11:02:09;;;;;;;2.92;1.00;;;33.50;45.30;;;;;;6121998;23;20453;-91
2023/09/06 11:04:34;;;;;;;2.80;0.90;;;33.60;47.90;;;;;;6097589;23;20386;-92
2023/09/06 11:07:09;;;;;;;3.20;1.00;;;33.80;46.00;;;;;;6123391;23;20709;-93
2023/09/06 11:09:38;;;;;;;3.33;1.05;;;34.00;45.10;;;;;;6121529;23;21226;-93
2023/09/06 11:12:04;;;;;;;2.85;1.02;;;34.10;43.90;;;;;;6123065;23;20379;-92
2023/09/06 11:14:30;;;;;;;3.00;0.93;;;34.10;42.70;;;;;;6096735;23;20466;-92
2023/09/06 11:16:56;;;;;;;2.97;0.70;;;34.10;43.40;;;;;;6098159;23;20407;-93
2023/09/06 11:19:31;;;;;;;2.75;0.75;;;34.10;45.70;;;;;;6122572;23;20371;-91
2023/09/06 11:22:05;;;;;;;2.40;0.73;;;34.20;42.30;;;;;;6096775;23;20434;-90
2023/09/06 11:24:35;;;;;;;1.50;0.90;;;34.20;41.30;;;;;;6122928;23;20382;-93
2023/09/06 11:27:16;;;;;;;2.83;0.90;;;34.20;42.90;;;;;;6120957;23;20407;-92
2023/09/06 11:29:43;;;;;;;1.48;0.80;;;34.30;43.10;;;;;;6123563;23;20410;-91
2023/09/06 11:32:12;;;;;;;3.47;0.90;;;34.50;43.50;;;;;;6122223;23;20363;-92
2023/09/06 11:34:42;;;;;;;2.67;0.85;;;34.60;43.20;;;;;;6122371;23;20387;-94
2023/09/06 11:37:10;;;;;;;2.67;0.85;;;34.80;44.10;;;;;;6123772;23;20812;-93
2023/09/06 11:39:40;;;;;;;2.47;0.88;;;35.00;41.70;;;;;;6096764;23;20375;-91
2023/09/06 11:42:11;;;;;;;2.58;0.80;;;35.20;40.80;;;;;;6123353;23;20367;-91
2023/09/06 11:44:43;;;;;;;1.50;0.60;;;35.40;43.90;;;;;;6097330;23;20488;-94
2023/09/06 11:47:09;;;;;;;2.60;0.87;;;35.60;42.30;;;;;;6123483;23;20454;-93
2023/09/06 11:49:35;;;;;;;1.90;0.80;;;35.70;41.20;;;;;;6097942;23;20371;-92
2023/09/06 11:52:05;;;;;;;2.20;0.63;;;35.80;40.50;;;;;;6097599;23;20409;-88
2023/09/06 11:54:32;;;;;;;2.47;0.82;;;35.80;40.30;;;;;;6098473;23;20425;-90
2023/09/06 11:56:58;;;;;;;2.40;0.60;;;35.80;38.70;;;;;;6121367;23;20410;-92
2023/09/06 11:59:28;;;;;;;1.70;0.65;;;35.90;43.00;;;;;;6098934;23;20411;-87
2023/09/06 12:02:05;;;;;;;2.00;0.60;;;36.00;40.50;;;;;;6096424;23;20371;-90
2023/09/06 12:04:32;;;;;;;2.42;0.80;;;36.20;38.10;;;;;;6098110;23;20768;-91
2023/09/06 12:07:00;;;;;;;1.87;0.63;;;36.20;39.70;;;;;;6122135;23;20407;-90
2023/09/06 12:09:26;;;;;;;1.43;0.50;;;36.20;38.20;;;;;;6096887;23;20379;-88
2023/09/06 12:11:52;;;;;;;2.13;0.70;;;36.30;38.10;;;;;;6098631;23;20375;-89
2023/09/06 12:14:18;;;;;;;2.07;0.70;;;36.30;41.30;;;;;;6119836;23;20477;-90
2023/09/06 12:16:43;;;;;;;1.40;0.60;;;36.50;38.50;;;;;;6098344;23;20745;-89
2023/09/06 12:19:11;;;;;;;2.05;0.70;;;36.60;37.80;;;;;;6120415;23;20939;-89
2023/09/06 12:21:37;;;;;;;1.70;0.50;;;36.60;36.80;;;;;;6098191;23;20375;-91
2023/09/06 12:24:03;;;;;;;1.60;0.50;;;36.70;36.40;;;;;;6121374;23;21031;-88
2023/09/06 12:26:28;;;;;;;1.67;0.60;;;36.90;36.00;;;;;;6121159;23;20374;-90
2023/09/06 12:28:54;;;;;;;2.20;0.60;;;37.00;35.80;;;;;;6097996;23;20915;-91
2023/09/06 12:31:20;;;;;;;1.58;0.50;;;37.20;36.60;;;;;;6120378;23;20367;-90
2023/09/06 12:33:48;;;;;;;1.50;0.60;;;37.40;37.00;;;;;;6097384;23;20482;-91
2023/09/06 12:36:16;;;;;;;2.10;0.55;;;37.50;37.20;;;;;;6095531;23;20378;-90
2023/09/06 12:38:42;;;;;;;2.60;0.60;;;37.60;36.10;;;;;;6098245;23;20379;-93
2023/09/06 12:41:08;;;;;;;1.90;0.50;;;37.60;37.40;;;;;;6096262;23;20903;-92